createdAt,value
2023-03-17T00:00:46.202Z,11.20
2023-03-17T00:03:21.422Z,10.33
2023-03-17T00:05:50.892Z,10.27
2023-03-17T00:08:23.576Z,10.93
2023-03-17T00:10:53.285Z,11.40
2023-03-17T00:13:22.326Z,10.57
2023-03-17T00:15:55.994Z,10.73
2023-03-17T00:18:25.392Z,11.00
2023-03-17T00:20:54.729Z,10.70
2023-03-17T00:23:25.438Z,10.37
2023-03-17T00:25:54.467Z,10.80
2023-03-17T00:28:25.013Z,10.23
2023-03-17T00:30:58.216Z,10.67
2023-03-17T00:33:29.403Z,10.63
2023-03-17T00:35:59.597Z,10.80
2023-03-17T00:38:29.727Z,10.77
2023-03-17T00:41:00.428Z,10.80
2023-03-17T00:43:30.704Z,10.40
2023-03-17T00:46:01.376Z,10.33
2023-03-17T00:48:30.933Z,10.13
2023-03-17T00:51:00.033Z,10.70
2023-03-17T00:53:30.853Z,10.60
2023-03-17T00:56:01.848Z,9.90
2023-03-17T00:58:33.546Z,10.10
2023-03-17T01:01:04.084Z,10.53
2023-03-17T01:03:34.488Z,10.53
2023-03-17T01:06:05.170Z,11.03
2023-03-17T01:08:34.746Z,10.47
2023-03-17T01:11:04.260Z,10.53
2023-03-17T01:13:33.174Z,10.63
2023-03-17T01:16:03.489Z,10.37
2023-03-17T01:18:32.727Z,10.53
2023-03-17T01:21:01.684Z,10.53
2023-03-17T01:23:30.657Z,10.40
2023-03-17T01:26:00.045Z,11.03
2023-03-17T01:28:29.536Z,10.73
2023-03-17T01:30:58.719Z,10.43
2023-03-17T01:33:29.211Z,10.50
2023-03-17T01:35:58.510Z,10.40
2023-03-17T01:38:27.604Z,9.87
2023-03-17T01:40:56.677Z,10.10
2023-03-17T01:43:27.514Z,10.30
2023-03-17T01:46:27.400Z,10.50
2023-03-17T01:49:07.883Z,10.17
2023-03-17T01:51:42.873Z,9.93
2023-03-17T01:54:15.275Z,10.07
2023-03-17T01:56:50.078Z,10.63
2023-03-17T01:59:23.573Z,11.00
2023-03-17T02:01:57.549Z,10.00
2023-03-17T02:04:28.033Z,10.20
2023-03-17T02:06:58.956Z,10.80
2023-03-17T02:09:29.509Z,10.63
2023-03-17T02:12:01.425Z,10.90
2023-03-17T02:14:31.096Z,10.63
2023-03-17T02:17:00.734Z,10.33
2023-03-17T02:19:31.003Z,10.73
2023-03-17T02:22:02.481Z,10.30
2023-03-17T02:24:34.744Z,10.60
2023-03-17T02:27:08.072Z,10.53
2023-03-17T02:29:38.180Z,10.70
2023-03-17T02:32:09.858Z,10.87
2023-03-17T02:34:39.030Z,10.93
2023-03-17T02:37:09.462Z,10.73
2023-03-17T02:39:38.379Z,10.30
2023-03-17T02:42:08.539Z,10.90
2023-03-17T02:44:37.835Z,10.43
2023-03-17T02:47:08.481Z,10.27
2023-03-17T02:49:38.404Z,10.63
2023-03-17T02:52:10.044Z,9.97
2023-03-17T02:54:39.208Z,10.00
2023-03-17T02:57:08.564Z,10.53
2023-03-17T02:59:39.032Z,10.70
2023-03-17T03:02:08.055Z,9.93
2023-03-17T03:04:37.537Z,10.50
2023-03-17T03:07:07.067Z,10.37
2023-03-17T03:09:37.860Z,10.97
2023-03-17T03:12:09.935Z,10.50
2023-03-17T03:14:38.998Z,10.60
2023-03-17T03:17:09.091Z,10.50
2023-03-17T03:19:38.263Z,10.53
2023-03-17T03:22:07.264Z,10.57
2023-03-17T03:24:37.730Z,10.23
2023-03-17T03:27:07.114Z,10.00
2023-03-17T03:29:36.418Z,10.87
2023-03-17T03:32:05.931Z,10.53
2023-03-17T03:34:35.317Z,10.37
2023-03-17T03:37:08.118Z,10.40
2023-03-17T03:39:39.185Z,10.50
2023-03-17T03:42:08.397Z,9.63
2023-03-17T03:44:37.566Z,10.17
2023-03-17T03:47:06.916Z,10.70
2023-03-17T03:49:36.030Z,10.30
2023-03-17T03:52:05.631Z,10.30
2023-03-17T03:54:34.624Z,10.53
2023-03-17T03:57:05.103Z,10.47
2023-03-17T03:59:34.082Z,10.50
2023-03-17T04:02:03.166Z,9.73
2023-03-17T04:04:32.174Z,10.20
2023-03-17T04:07:01.520Z,10.53
2023-03-17T04:09:30.613Z,10.23
2023-03-17T04:12:00.302Z,10.60
2023-03-17T04:14:30.916Z,10.83
2023-03-17T04:17:00.179Z,9.97
2023-03-17T04:19:29.280Z,9.83
2023-03-17T04:21:58.457Z,10.47
2023-03-17T04:24:31.696Z,9.63
2023-03-17T04:27:01.005Z,10.03
2023-03-17T04:29:32.050Z,10.27
2023-03-17T04:32:01.409Z,10.43
2023-03-17T04:34:30.684Z,10.80
2023-03-17T04:36:59.740Z,10.53
2023-03-17T04:39:29.064Z,10.10
2023-03-17T04:41:58.303Z,10.93
2023-03-17T04:44:27.637Z,11.10
2023-03-17T04:46:58.271Z,10.90
2023-03-17T04:49:27.471Z,10.90
2023-03-17T04:51:56.770Z,10.97
2023-03-17T04:54:26.037Z,11.60
2023-03-17T04:56:55.208Z,10.60
2023-03-17T04:59:24.469Z,10.70
2023-03-17T05:01:53.587Z,10.87
2023-03-17T05:04:31.618Z,10.90
2023-03-17T05:07:01.457Z,10.87
2023-03-17T05:09:30.684Z,11.13
2023-03-17T05:11:59.805Z,10.57
2023-03-17T05:14:28.931Z,11.20
2023-03-17T05:16:58.204Z,11.10
2023-03-17T05:19:28.749Z,11.70
2023-03-17T05:21:58.122Z,11.00
2023-03-17T05:24:27.568Z,11.83
2023-03-17T05:26:56.754Z,11.43
2023-03-17T05:29:26.011Z,11.43
2023-03-17T05:31:54.950Z,11.27
2023-03-17T05:34:23.902Z,11.43
2023-03-17T05:36:54.431Z,11.10
2023-03-17T05:39:23.312Z,11.27
2023-03-17T05:41:52.238Z,11.23
2023-03-17T05:44:21.713Z,11.90
2023-03-17T05:46:51.191Z,11.37
2023-03-17T05:49:20.344Z,11.07
2023-03-17T05:51:49.334Z,11.57
2023-03-17T05:54:19.792Z,12.27
2023-03-17T05:56:48.935Z,11.47
2023-03-17T05:59:18.444Z,11.43
2023-03-17T06:01:47.400Z,11.20
2023-03-17T06:04:16.511Z,11.07
2023-03-17T06:06:45.529Z,12.20
2023-03-17T06:09:15.029Z,11.90
2023-03-17T06:11:45.831Z,12.57
2023-03-17T06:14:14.686Z,13.27
2023-03-17T06:16:43.642Z,12.83
2023-03-17T06:19:12.574Z,12.77
2023-03-17T06:21:41.638Z,12.37
2023-03-17T06:24:11.390Z,11.80
2023-03-17T06:26:41.084Z,11.57
2023-03-17T06:29:12.541Z,12.00
2023-03-17T06:31:42.184Z,12.33
2023-03-17T06:34:11.984Z,11.47
2023-03-17T06:36:41.577Z,12.17
2023-03-17T06:39:10.965Z,11.93
2023-03-17T06:41:40.589Z,11.77
2023-03-17T06:44:11.215Z,11.70
2023-03-17T06:46:40.919Z,11.83
2023-03-17T06:49:13.609Z,12.30
2023-03-17T06:51:42.657Z,12.43
2023-03-17T06:54:12.260Z,11.20
2023-03-17T06:56:41.648Z,11.90
2023-03-17T06:59:13.292Z,11.70
2023-03-17T07:01:42.430Z,11.40
2023-03-17T07:04:11.523Z,11.00
2023-03-17T07:06:40.618Z,10.80
2023-03-17T07:09:10.589Z,10.97
2023-03-17T07:11:39.604Z,11.50
2023-03-17T07:14:09.050Z,11.00
2023-03-17T07:16:40.229Z,10.60
2023-03-17T07:19:09.902Z,11.00
2023-03-17T07:21:39.083Z,11.17
2023-03-17T07:24:08.491Z,10.63
2023-03-17T07:26:37.578Z,10.43
2023-03-17T07:29:06.607Z,9.87
2023-03-17T07:31:41.414Z,9.83
2023-03-17T07:34:12.830Z,9.40
2023-03-17T07:36:42.107Z,10.07
2023-03-17T07:39:12.176Z,10.60
2023-03-17T07:41:41.319Z,9.33
2023-03-17T07:44:12.623Z,9.57
2023-03-17T07:46:41.772Z,9.20
2023-03-17T07:49:12.641Z,8.63
2023-03-17T07:51:43.282Z,8.43
2023-03-17T07:54:15.087Z,7.53
2023-03-17T07:56:44.438Z,8.27
2023-03-17T07:59:13.615Z,7.30
2023-03-17T08:01:42.675Z,7.10
2023-03-17T08:04:13.350Z,7.70
2023-03-17T08:06:43.530Z,7.33
2023-03-17T08:09:12.756Z,6.90
2023-03-17T08:11:41.972Z,7.17
2023-03-17T08:14:11.779Z,6.43
2023-03-17T08:16:41.433Z,6.83
2023-03-17T08:19:12.268Z,6.97
2023-03-17T08:21:42.253Z,6.13
2023-03-17T08:24:11.911Z,5.33
2023-03-17T08:26:41.421Z,5.77
2023-03-17T08:29:10.850Z,5.77
2023-03-17T08:31:40.402Z,5.47
2023-03-17T08:34:09.923Z,5.80
2023-03-17T08:36:40.543Z,5.33
2023-03-17T08:39:11.081Z,5.13
2023-03-17T08:41:40.410Z,5.17
2023-03-17T08:44:09.850Z,5.17
2023-03-17T08:46:40.270Z,4.80
2023-03-17T08:49:09.673Z,4.40
2023-03-17T08:51:40.412Z,4.80
2023-03-17T08:54:10.059Z,5.00
2023-03-17T08:56:40.372Z,4.50
2023-03-17T08:59:10.881Z,5.87
2023-03-17T09:01:40.185Z,5.27
2023-03-17T09:04:09.834Z,4.73
2023-03-17T09:06:48.912Z,5.67
2023-03-17T09:09:24.620Z,5.70
2023-03-17T09:11:53.761Z,5.73
2023-03-17T09:14:24.715Z,6.00
2023-03-17T09:16:54.637Z,6.30
2023-03-17T09:19:24.101Z,6.43
2023-03-17T09:21:54.909Z,6.67
2023-03-17T09:24:24.020Z,6.13
2023-03-17T09:26:53.646Z,6.40
2023-03-17T09:29:22.682Z,6.13
2023-03-17T09:31:52.286Z,6.50
2023-03-17T09:34:21.429Z,6.40
2023-03-17T09:36:50.751Z,6.43
2023-03-17T09:39:22.415Z,6.83
2023-03-17T09:42:05.015Z,6.97
2023-03-17T09:44:49.606Z,6.67
2023-03-17T09:47:42.994Z,7.13
2023-03-17T09:50:16.538Z,7.27
2023-03-17T09:52:46.540Z,7.07
2023-03-17T09:55:26.225Z,6.70
2023-03-17T09:57:58.820Z,6.80
2023-03-17T10:00:31.163Z,6.70
2023-03-17T10:03:01.512Z,6.47
2023-03-17T10:05:33.087Z,5.87
2023-03-17T10:08:22.854Z,5.77
2023-03-17T10:11:04.284Z,6.03
2023-03-17T10:13:51.094Z,6.27
2023-03-17T10:16:22.454Z,6.20
2023-03-17T10:18:56.771Z,6.07
2023-03-17T10:21:29.852Z,6.03
2023-03-17T10:23:59.387Z,6.10
2023-03-17T10:26:33.483Z,6.63
2023-03-17T10:29:04.802Z,5.77
2023-03-17T10:31:38.054Z,5.30
2023-03-17T10:34:15.029Z,5.40
2023-03-17T10:36:47.308Z,5.60
2023-03-17T10:39:19.707Z,5.47
2023-03-17T10:41:58.285Z,5.23
2023-03-17T10:44:40.896Z,5.37
2023-03-17T10:47:31.628Z,5.60
2023-03-17T10:50:05.480Z,4.80
2023-03-17T10:52:40.781Z,5.63
2023-03-17T10:55:14.241Z,5.17
2023-03-17T10:57:53.618Z,5.17
2023-03-17T11:00:24.718Z,5.00
2023-03-17T11:02:57.992Z,5.20
2023-03-17T11:05:29.731Z,5.37
2023-03-17T11:08:07.042Z,5.20
2023-03-17T11:10:39.250Z,4.60
2023-03-17T11:13:10.503Z,4.53
2023-03-17T11:15:46.316Z,4.80
2023-03-17T11:18:20.607Z,5.37
2023-03-17T11:20:55.400Z,4.30
2023-03-17T11:23:47.292Z,4.03
2023-03-17T11:26:57.474Z,4.30
2023-03-17T11:29:52.767Z,4.20
2023-03-17T11:32:28.608Z,4.17
2023-03-17T11:35:14.767Z,4.07
2023-03-17T11:38:08.547Z,3.47
2023-03-17T11:40:47.950Z,3.27
2023-03-17T11:43:29.157Z,3.13
2023-03-17T11:46:08.963Z,3.30
2023-03-17T11:48:48.228Z,3.30
2023-03-17T11:51:27.601Z,3.30
2023-03-17T11:54:07.998Z,3.87
2023-03-17T11:56:42.978Z,3.00
2023-03-17T11:59:19.719Z,3.07
2023-03-17T12:01:59.711Z,3.40
2023-03-17T12:04:34.554Z,6.10
2023-03-17T12:07:12.803Z,3.47
2023-03-17T12:09:46.177Z,3.07
2023-03-17T12:12:20.826Z,3.10
2023-03-17T12:14:53.245Z,3.23
2023-03-17T12:17:29.673Z,3.43
2023-03-17T12:20:08.720Z,5.67
2023-03-17T12:22:41.905Z,3.40
2023-03-17T12:25:17.990Z,3.37
2023-03-17T12:27:56.133Z,4.13
2023-03-17T12:30:31.000Z,3.53
2023-03-17T12:33:11.930Z,3.60
2023-03-17T12:35:41.432Z,3.70
2023-03-17T12:38:13.674Z,3.43
2023-03-17T12:41:18.259Z,3.03
2023-03-17T12:43:59.102Z,2.80
2023-03-17T12:46:43.723Z,2.63
2023-03-17T12:49:39.085Z,2.17
2023-03-17T12:52:21.339Z,2.67
2023-03-17T12:54:52.718Z,1.70
2023-03-17T12:57:24.289Z,1.83
2023-03-17T13:00:01.598Z,2.47
2023-03-17T13:02:38.559Z,1.90
2023-03-17T13:05:15.466Z,1.77
2023-03-17T13:07:52.543Z,1.50
2023-03-17T13:10:40.770Z,2.10
2023-03-17T13:13:23.205Z,1.67
2023-03-17T13:15:58.404Z,1.60
2023-03-17T13:18:51.354Z,1.80
2023-03-17T13:21:26.415Z,2.23
2023-03-17T13:23:58.933Z,4.00
2023-03-17T13:26:58.041Z,2.13
2023-03-17T13:29:45.705Z,4.13
2023-03-17T13:32:38.064Z,2.63
2023-03-17T13:35:20.272Z,3.10
2023-03-17T13:38:22.065Z,3.33
2023-03-17T13:41:03.758Z,2.87
2023-03-17T13:43:50.908Z,2.83
2023-03-17T13:46:28.372Z,2.90
2023-03-17T13:48:59.222Z,2.77
2023-03-17T13:51:34.250Z,3.03
2023-03-17T13:54:21.484Z,3.27
2023-03-17T13:56:53.805Z,3.30
2023-03-17T13:59:24.738Z,4.67
2023-03-17T14:01:57.818Z,3.00
2023-03-17T14:04:29.456Z,3.03
2023-03-17T14:07:06.880Z,3.20
2023-03-17T14:09:39.208Z,2.80
2023-03-17T14:12:14.368Z,3.30
2023-03-17T14:14:50.406Z,3.10
2023-03-17T14:17:23.599Z,3.30
2023-03-17T14:20:08.522Z,3.33
2023-03-17T14:22:45.008Z,3.70
2023-03-17T14:25:20.173Z,4.17
2023-03-17T14:27:52.494Z,3.37
2023-03-17T14:30:23.837Z,3.20
2023-03-17T14:32:59.603Z,3.60
2023-03-17T14:35:32.240Z,3.47
2023-03-17T14:38:02.657Z,3.43
2023-03-17T14:40:36.938Z,3.70
2023-03-17T14:43:06.193Z,3.60
2023-03-17T14:45:49.965Z,3.60
2023-03-17T14:48:24.256Z,3.40
2023-03-17T14:50:55.692Z,3.40
2023-03-17T14:53:26.407Z,3.40
2023-03-17T14:55:57.472Z,3.63
2023-03-17T14:58:28.496Z,3.37
2023-03-17T15:01:04.355Z,4.30
2023-03-17T15:03:41.443Z,4.10
2023-03-17T15:06:23.997Z,3.33
2023-03-17T15:08:54.303Z,3.50
2023-03-17T15:11:27.056Z,4.17
2023-03-17T15:14:04.928Z,3.80
2023-03-17T15:16:37.259Z,3.80
2023-03-17T15:19:09.797Z,3.67
2023-03-17T15:21:41.171Z,4.13
2023-03-17T15:24:30.265Z,4.10
2023-03-17T15:27:06.227Z,4.00
2023-03-17T15:29:35.732Z,3.97
2023-03-17T15:32:12.861Z,3.90
2023-03-17T15:34:42.474Z,4.00
2023-03-17T15:37:22.826Z,6.83
2023-03-17T15:39:53.627Z,4.40
2023-03-17T15:42:25.769Z,3.77
2023-03-17T15:44:54.888Z,4.60
2023-03-17T15:47:27.165Z,4.10
2023-03-17T15:49:59.593Z,4.30
2023-03-17T15:52:29.838Z,4.10
2023-03-17T15:55:00.610Z,4.13
2023-03-17T15:57:31.189Z,4.37
2023-03-17T16:00:00.308Z,3.57
2023-03-17T16:02:32.141Z,4.27
2023-03-17T16:05:03.076Z,4.10
2023-03-17T16:07:32.467Z,4.47
2023-03-17T16:10:01.455Z,4.67
2023-03-17T16:12:31.834Z,4.03
2023-03-17T16:15:05.414Z,4.00
2023-03-17T16:17:36.970Z,4.40
2023-03-17T16:20:06.691Z,4.30
2023-03-17T16:22:40.025Z,4.70
2023-03-17T16:25:21.471Z,4.20
2023-03-17T16:27:52.347Z,4.40
2023-03-17T16:30:23.344Z,4.40
2023-03-17T16:32:53.455Z,4.90
2023-03-17T16:35:24.789Z,4.30
2023-03-17T16:37:55.060Z,4.63
2023-03-17T16:40:26.275Z,4.43
2023-03-17T16:42:56.670Z,4.73
2023-03-17T16:45:29.181Z,4.43
2023-03-17T16:47:58.530Z,4.77
2023-03-17T16:50:30.655Z,4.97
2023-03-17T16:53:00.305Z,5.10
2023-03-17T16:55:30.399Z,5.17
2023-03-17T16:58:04.889Z,4.77
2023-03-17T17:00:34.260Z,4.50
2023-03-17T17:03:03.447Z,5.10
2023-03-17T17:05:32.616Z,5.27
2023-03-17T17:08:01.935Z,4.57
2023-03-17T17:10:34.081Z,4.93
2023-03-17T17:13:07.814Z,4.60
2023-03-17T17:15:38.068Z,5.87
2023-03-17T17:18:12.344Z,5.43
2023-03-17T17:20:42.214Z,5.40
2023-03-17T17:23:14.458Z,5.10
2023-03-17T17:25:43.968Z,5.13
2023-03-17T17:28:16.674Z,4.83
2023-03-17T17:30:47.858Z,5.47
2023-03-17T17:33:18.182Z,5.33
2023-03-17T17:35:48.225Z,5.40
2023-03-17T17:38:21.197Z,5.70
2023-03-17T17:40:50.938Z,6.17
2023-03-17T17:43:21.740Z,6.10
2023-03-17T17:45:50.903Z,5.63
2023-03-17T17:48:22.456Z,6.03
2023-03-17T17:50:52.196Z,6.57
2023-03-17T17:53:21.451Z,6.17
2023-03-17T17:55:51.680Z,6.43
2023-03-17T17:58:23.730Z,7.10
2023-03-17T18:00:55.281Z,7.23
2023-03-17T18:03:25.270Z,6.70
2023-03-17T18:05:54.665Z,7.03
2023-03-17T18:08:25.158Z,6.73
2023-03-17T18:10:55.740Z,6.90
2023-03-17T18:13:26.360Z,6.90
2023-03-17T18:15:55.474Z,7.00
2023-03-17T18:18:24.602Z,7.10
2023-03-17T18:20:54.254Z,7.57
2023-03-17T18:23:23.392Z,7.43
2023-03-17T18:25:52.454Z,6.87
2023-03-17T18:28:21.532Z,6.83
2023-03-17T18:30:51.820Z,7.13
2023-03-17T18:33:21.321Z,7.37
2023-03-17T18:35:52.297Z,6.90
2023-03-17T18:38:21.377Z,6.93
2023-03-17T18:40:50.327Z,8.07
2023-03-17T18:43:20.017Z,8.03
2023-03-17T18:45:49.394Z,7.33
2023-03-17T18:48:20.287Z,6.87
2023-03-17T18:50:49.357Z,7.27
2023-03-17T18:53:18.177Z,8.17
2023-03-17T18:55:47.107Z,7.20
2023-03-17T18:58:16.297Z,7.60
2023-03-17T19:00:45.290Z,8.30
2023-03-17T19:03:14.294Z,7.90
2023-03-17T19:05:44.465Z,7.67
2023-03-17T19:08:15.169Z,8.20
2023-03-17T19:10:44.545Z,8.03
2023-03-17T19:13:13.663Z,8.67
2023-03-17T19:15:43.280Z,7.97
2023-03-17T19:18:12.249Z,8.70
2023-03-17T19:20:41.527Z,8.57
2023-03-17T19:23:12.490Z,8.17
2023-03-17T19:25:41.820Z,8.77
2023-03-17T19:28:10.659Z,7.37
2023-03-17T19:30:40.041Z,8.53
2023-03-17T19:33:09.014Z,8.43
2023-03-17T19:35:38.210Z,8.43
2023-03-17T19:38:08.279Z,8.67
2023-03-17T19:40:38.861Z,8.77
2023-03-17T19:43:08.115Z,8.57
2023-03-17T19:45:37.152Z,8.97
2023-03-17T19:48:06.548Z,8.73
2023-03-17T19:50:35.589Z,9.23
2023-03-17T19:53:04.960Z,9.13
2023-03-17T19:55:34.056Z,9.60
2023-03-17T19:58:05.714Z,9.77
2023-03-17T20:00:34.960Z,9.90
2023-03-17T20:03:04.600Z,9.30
2023-03-17T20:05:34.011Z,9.70
2023-03-17T20:08:03.119Z,10.10
2023-03-17T20:10:32.393Z,9.27
2023-03-17T20:13:01.661Z,9.57
2023-03-17T20:15:32.155Z,9.57
2023-03-17T20:18:01.154Z,10.03
2023-03-17T20:20:31.332Z,10.33
2023-03-17T20:23:00.745Z,10.70
2023-03-17T20:25:29.801Z,9.87
2023-03-17T20:27:58.762Z,9.67
2023-03-17T20:30:28.210Z,10.33
2023-03-17T20:32:59.163Z,10.33
2023-03-17T20:35:28.250Z,10.30
2023-03-17T20:37:58.014Z,9.47
2023-03-17T20:40:28.546Z,10.30
2023-03-17T20:42:57.766Z,10.67
2023-03-17T20:45:26.975Z,10.00
2023-03-17T20:47:56.022Z,10.57
2023-03-17T20:50:26.533Z,10.50
2023-03-17T20:52:55.520Z,10.47
2023-03-17T20:55:25.230Z,10.70
2023-03-17T20:57:54.316Z,9.83
2023-03-17T21:00:24.481Z,10.27
2023-03-17T21:02:53.639Z,11.30
2023-03-17T21:05:26.173Z,11.57
2023-03-17T21:07:57.554Z,11.03
2023-03-17T21:10:26.615Z,11.57
2023-03-17T21:12:55.476Z,11.20
2023-03-17T21:15:24.753Z,11.07
2023-03-17T21:17:53.804Z,11.37
2023-03-17T21:20:25.174Z,10.93
2023-03-17T21:22:54.191Z,11.20
2023-03-17T21:25:24.711Z,10.50
2023-03-17T21:27:53.909Z,10.53
2023-03-17T21:30:23.009Z,10.20
2023-03-17T21:32:53.601Z,10.47
2023-03-17T21:35:24.018Z,10.17
2023-03-17T21:37:53.470Z,10.00
2023-03-17T21:40:25.969Z,10.20
2023-03-17T21:42:55.741Z,9.90
2023-03-17T21:45:24.888Z,9.60
2023-03-17T21:47:54.277Z,10.30
2023-03-17T21:50:23.663Z,9.10
2023-03-17T21:52:52.733Z,9.90
2023-03-17T21:55:21.894Z,11.07
2023-03-17T21:57:52.281Z,10.00
2023-03-17T22:00:23.502Z,10.60
2023-03-17T22:02:53.377Z,10.33
2023-03-17T22:05:22.780Z,10.73
2023-03-17T22:07:53.241Z,9.90
2023-03-17T22:10:22.563Z,9.70
2023-03-17T22:12:53.013Z,11.17
2023-03-17T22:15:22.532Z,10.60
2023-03-17T22:17:51.541Z,10.70
2023-03-17T22:20:21.011Z,9.73
2023-03-17T22:22:50.321Z,10.67
2023-03-17T22:25:21.116Z,11.00
2023-03-17T22:27:53.763Z,10.83
2023-03-17T22:30:23.136Z,11.17
2023-03-17T22:32:53.052Z,10.77
2023-03-17T22:35:23.408Z,10.40
2023-03-17T22:37:52.647Z,10.43
2023-03-17T22:40:21.742Z,10.80
2023-03-17T22:42:52.134Z,10.93
2023-03-17T22:45:21.584Z,10.47
2023-03-17T22:47:50.676Z,11.53
2023-03-17T22:50:20.412Z,10.73
2023-03-17T22:52:50.032Z,11.27
2023-03-17T22:55:19.112Z,11.13
2023-03-17T22:57:48.223Z,11.67
2023-03-17T23:00:19.570Z,12.37
2023-03-17T23:02:48.689Z,10.73
2023-03-17T23:05:17.982Z,14.37
2023-03-17T23:07:50.677Z,12.97
2023-03-17T23:10:22.904Z,11.47
2023-03-17T23:12:53.125Z,11.03
2023-03-17T23:15:23.624Z,11.63
2023-03-17T23:17:53.789Z,11.73
2023-03-17T23:20:23.129Z,11.33
2023-03-17T23:22:52.697Z,12.00
2023-03-17T23:25:22.432Z,11.40
2023-03-17T23:27:52.415Z,11.73
2023-03-17T23:30:22.938Z,11.83
2023-03-17T23:32:52.142Z,10.50
2023-03-17T23:35:21.559Z,11.83
2023-03-17T23:37:50.850Z,11.60
2023-03-17T23:40:20.251Z,10.97
2023-03-17T23:42:49.666Z,11.67
2023-03-17T23:45:19.193Z,11.40
2023-03-17T23:47:50.186Z,11.17
2023-03-17T23:50:20.864Z,10.30
2023-03-17T23:52:50.159Z,11.23
2023-03-17T23:55:19.836Z,11.57
2023-03-17T23:57:49.334Z,12.00
